Old Fields, West Virginia
Current Conditions -  °F | °C
As of 4:35 PM on Friday 28 Nov 2014 (Local Time) from KW99 Reporting Station
Clear Clear  
Wind Chill: -3°   Ceiling: Unl
Heat Index:   Visibility: 10mi
Dew Point: -10°   Wind: 6mph
Humidity: 48%   Direction: 270°W
Pressure: 30.27"   Gusts: NA
Location:  39.14°N, 78.95°W
Report Text: KW99 282135Z AUTO 27005KT 10SM CLR 00/M10 A3027 RMK AO2 T10031102
Loading
Personal Weather Stations






























Interactive Weather Map New forecast layout! Learn more

10-Day Weather Forecast

Advertisements
Track Severe Weather on mobile